createdAt,value
2019-01-29T00:01:41.570Z,7.33
2019-01-29T00:06:34.352Z,5.73
2019-01-29T00:11:27.260Z,7.37
2019-01-29T00:16:20.050Z,6.43
2019-01-29T00:21:12.888Z,6.87
2019-01-29T00:26:05.760Z,7.13
2019-01-29T00:30:58.803Z,7.97
2019-01-29T00:35:51.678Z,7.83
2019-01-29T00:40:44.494Z,7.53
2019-01-29T00:45:37.332Z,7.50
2019-01-29T00:50:30.140Z,7.27
2019-01-29T00:55:23.220Z,8.13
2019-01-29T01:00:19.195Z,7.20
2019-01-29T01:05:12.581Z,7.03
2019-01-29T01:10:10.132Z,7.87
2019-01-29T01:15:04.088Z,7.37
2019-01-29T01:19:56.932Z,7.50
2019-01-29T01:24:49.789Z,7.93
2019-01-29T01:29:42.619Z,6.97
2019-01-29T01:34:35.564Z,6.60
2019-01-29T01:39:28.437Z,6.80
2019-01-29T01:44:21.268Z,6.47
2019-01-29T01:49:14.126Z,7.30
2019-01-29T01:54:06.959Z,7.40
2019-01-29T01:58:59.829Z,6.90
2019-01-29T02:03:52.671Z,6.67
2019-01-29T02:08:45.526Z,6.70
2019-01-29T02:13:38.353Z,6.57
2019-01-29T02:18:31.168Z,5.67
2019-01-29T02:23:24.056Z,6.20
2019-01-29T02:28:16.916Z,5.90
2019-01-29T02:33:09.691Z,5.67
2019-01-29T02:38:02.671Z,5.53
2019-01-29T02:42:55.495Z,5.63
2019-01-29T02:47:48.547Z,5.63
2019-01-29T02:52:41.387Z,6.10
2019-01-29T02:57:34.245Z,5.60
2019-01-29T03:02:27.060Z,5.30
2019-01-29T03:07:19.863Z,5.13
2019-01-29T03:12:12.737Z,4.87
2019-01-29T03:17:05.593Z,5.00
2019-01-29T03:21:58.440Z,4.90
2019-01-29T03:26:51.261Z,5.60
2019-01-29T03:31:44.117Z,4.90
2019-01-29T03:36:36.952Z,4.43
2019-01-29T03:41:30.840Z,4.47
2019-01-29T03:46:23.672Z,4.43
2019-01-29T03:51:16.492Z,5.13
2019-01-29T03:56:09.342Z,5.03
2019-01-29T04:01:02.209Z,5.70
2019-01-29T04:05:55.030Z,5.47
2019-01-29T04:10:47.910Z,6.07
2019-01-29T04:15:40.717Z,6.37
2019-01-29T04:20:33.607Z,6.80
2019-01-29T04:25:26.416Z,7.37
2019-01-29T04:30:21.257Z,7.67
2019-01-29T04:35:14.198Z,7.63
2019-01-29T04:40:09.877Z,7.33
2019-01-29T04:45:03.974Z,6.47
2019-01-29T04:49:56.857Z,7.47
2019-01-29T04:54:49.655Z,6.47
2019-01-29T04:59:42.481Z,7.00
2019-01-29T05:04:35.397Z,7.17
2019-01-29T05:09:28.237Z,8.30
2019-01-29T05:14:21.038Z,8.10
2019-01-29T05:19:13.905Z,8.37
2019-01-29T05:24:07.328Z,9.10
2019-01-29T05:29:00.415Z,8.10
2019-01-29T05:33:53.280Z,8.70
2019-01-29T05:38:46.113Z,8.93
2019-01-29T05:43:38.989Z,9.53
2019-01-29T05:48:31.871Z,8.27
2019-01-29T05:53:24.726Z,8.97
2019-01-29T05:58:17.572Z,7.87
2019-01-29T06:03:10.405Z,8.27
2019-01-29T06:08:05.157Z,8.00
2019-01-29T06:12:58.003Z,7.30
2019-01-29T06:17:51.054Z,7.50
2019-01-29T06:22:43.879Z,8.23
2019-01-29T06:27:36.705Z,7.63
2019-01-29T06:32:29.632Z,7.73
2019-01-29T06:37:22.579Z,8.00
2019-01-29T06:42:15.399Z,7.90
2019-01-29T06:47:08.241Z,7.40
2019-01-29T06:52:01.104Z,8.03
2019-01-29T06:56:53.906Z,7.83
2019-01-29T07:01:46.758Z,8.60
2019-01-29T07:06:39.581Z,8.40
2019-01-29T07:11:32.470Z,8.53
2019-01-29T07:16:50.738Z,8.53
2019-01-29T07:21:43.568Z,8.00
2019-01-29T07:26:36.416Z,9.50
2019-01-29T07:31:29.242Z,9.60
2019-01-29T07:36:22.108Z,10.97
2019-01-29T07:41:14.931Z,10.33
2019-01-29T07:46:09.072Z,11.30
2019-01-29T07:51:01.923Z,10.97
2019-01-29T07:55:59.039Z,10.00
2019-01-29T08:00:51.871Z,11.33
2019-01-29T08:05:45.446Z,10.70
2019-01-29T08:10:38.561Z,10.87
2019-01-29T08:15:31.425Z,10.97
2019-01-29T08:20:24.359Z,12.00
2019-01-29T08:25:17.181Z,13.33
2019-01-29T08:30:10.510Z,12.83
2019-01-29T08:35:04.362Z,13.47
2019-01-29T08:39:57.228Z,13.60
2019-01-29T08:44:50.106Z,13.50
2019-01-29T08:49:43.364Z,14.53
2019-01-29T08:54:36.469Z,14.90
2019-01-29T08:59:29.407Z,13.93
2019-01-29T09:04:22.685Z,11.77
2019-01-29T09:09:15.558Z,12.33
2019-01-29T09:14:08.727Z,11.67
2019-01-29T09:19:01.926Z,11.13
2019-01-29T09:23:55.393Z,11.63
2019-01-29T09:28:48.592Z,12.27
2019-01-29T09:33:41.564Z,12.17
2019-01-29T09:38:34.755Z,13.87
2019-01-29T09:43:27.669Z,12.33
2019-01-29T09:48:20.561Z,10.27
2019-01-29T09:53:13.574Z,9.87
2019-01-29T09:58:06.469Z,10.20
2019-01-29T10:02:59.320Z,10.00
2019-01-29T10:07:52.315Z,9.17
2019-01-29T10:12:45.172Z,8.50
2019-01-29T10:17:38.515Z,7.60
2019-01-29T10:22:31.473Z,5.90
2019-01-29T10:27:24.724Z,4.93
2019-01-29T10:32:17.664Z,4.20
2019-01-29T10:37:10.597Z,4.40
2019-01-29T10:42:05.958Z,3.70
2019-01-29T10:46:59.132Z,3.27
2019-01-29T10:51:52.068Z,3.80
2019-01-29T10:56:44.918Z,4.70
2019-01-29T11:01:37.865Z,4.50
2019-01-29T11:06:30.765Z,4.00
2019-01-29T11:11:23.622Z,3.37
2019-01-29T11:16:16.583Z,3.40
2019-01-29T11:21:09.419Z,4.23
2019-01-29T11:26:02.373Z,4.07
2019-01-29T11:30:55.221Z,3.57
2019-01-29T11:35:48.145Z,3.30
2019-01-29T11:40:41.543Z,3.10
2019-01-29T11:45:44.544Z,3.77
2019-01-29T11:50:37.533Z,3.77
2019-01-29T11:55:30.405Z,3.60
2019-01-29T12:00:32.876Z,2.77
2019-01-29T12:05:25.855Z,2.80
2019-01-29T12:10:19.144Z,2.80
2019-01-29T12:15:14.292Z,2.87
2019-01-29T12:20:09.929Z,2.83
2019-01-29T12:25:03.330Z,3.33
2019-01-29T12:29:56.195Z,2.13
2019-01-29T12:34:49.120Z,1.83
2019-01-29T12:39:42.081Z,2.27
2019-01-29T12:44:34.889Z,1.93
2019-01-29T12:49:27.913Z,2.00
2019-01-29T12:54:20.764Z,2.53
2019-01-29T12:59:13.603Z,2.10
2019-01-29T13:04:06.506Z,1.93
2019-01-29T13:08:59.381Z,2.30
2019-01-29T13:13:52.304Z,2.40
2019-01-29T13:18:45.190Z,2.17
2019-01-29T13:23:38.077Z,1.83
2019-01-29T13:28:31.189Z,2.20
2019-01-29T13:33:24.203Z,2.43
2019-01-29T13:38:17.240Z,2.33
2019-01-29T13:43:10.180Z,2.90
2019-01-29T13:48:03.799Z,2.50
2019-01-29T13:52:56.771Z,2.30
2019-01-29T13:57:49.648Z,2.60
2019-01-29T14:02:42.809Z,2.30
2019-01-29T14:07:35.740Z,3.07
2019-01-29T14:12:28.775Z,3.13
2019-01-29T14:17:21.801Z,3.10
2019-01-29T14:22:14.767Z,3.27
2019-01-29T14:27:07.777Z,4.07
2019-01-29T14:32:00.754Z,3.50
2019-01-29T14:36:53.578Z,3.80
2019-01-29T14:41:46.681Z,3.83
2019-01-29T14:46:39.664Z,3.90
2019-01-29T14:51:32.742Z,3.37
2019-01-29T14:56:25.815Z,4.00
2019-01-29T15:01:19.301Z,4.33
2019-01-29T15:06:12.628Z,3.27
2019-01-29T15:11:05.597Z,3.63
2019-01-29T15:16:06.854Z,4.33
2019-01-29T15:20:59.708Z,4.33
2019-01-29T15:25:52.734Z,3.93
2019-01-29T15:30:45.730Z,4.37
2019-01-29T15:35:38.661Z,3.43
2019-01-29T15:40:32.015Z,3.20
2019-01-29T15:45:25.007Z,3.00
2019-01-29T15:50:20.377Z,3.53
2019-01-29T15:55:14.479Z,3.57
2019-01-29T16:00:22.942Z,3.50
2019-01-29T16:05:20.211Z,3.30
2019-01-29T16:10:17.031Z,2.97
2019-01-29T16:15:12.637Z,2.90
2019-01-29T16:20:07.043Z,2.90
2019-01-29T16:24:59.949Z,2.83
2019-01-29T16:29:57.812Z,3.87
2019-01-29T16:34:50.633Z,3.67
2019-01-29T16:39:43.718Z,3.60
2019-01-29T16:44:36.662Z,3.10
2019-01-29T16:49:29.497Z,3.40
2019-01-29T16:54:22.546Z,3.40
2019-01-29T16:59:15.362Z,4.07
2019-01-29T17:04:08.185Z,3.60
2019-01-29T17:09:01.240Z,3.20
2019-01-29T17:13:54.078Z,3.10
2019-01-29T17:18:46.951Z,3.30
2019-01-29T17:23:39.880Z,3.83
2019-01-29T17:28:32.751Z,4.00
2019-01-29T17:33:25.870Z,3.93
2019-01-29T17:38:18.831Z,3.63
2019-01-29T17:43:11.741Z,3.47
2019-01-29T17:48:05.463Z,3.87
2019-01-29T17:52:58.425Z,4.27
2019-01-29T17:57:51.315Z,3.90
2019-01-29T18:02:44.153Z,3.93
2019-01-29T18:07:37.069Z,4.47
2019-01-29T18:12:29.928Z,3.97
2019-01-29T18:17:22.931Z,4.00
2019-01-29T18:22:15.818Z,4.10
2019-01-29T18:27:08.731Z,4.17
2019-01-29T18:32:01.606Z,3.90
2019-01-29T18:36:54.517Z,4.20
2019-01-29T18:41:47.433Z,4.50
2019-01-29T18:46:40.396Z,4.43
2019-01-29T18:51:33.332Z,5.13
2019-01-29T18:56:26.330Z,5.00
2019-01-29T19:01:19.273Z,4.60
2019-01-29T19:06:13.772Z,5.07
2019-01-29T19:11:07.894Z,5.67
2019-01-29T19:16:00.845Z,5.83
2019-01-29T19:20:53.812Z,6.20
2019-01-29T19:25:46.859Z,5.73
2019-01-29T19:30:39.723Z,6.03
2019-01-29T19:35:32.660Z,5.90
2019-01-29T19:40:25.500Z,5.90
2019-01-29T19:45:24.840Z,6.60
2019-01-29T19:50:20.775Z,6.20
2019-01-29T19:55:13.648Z,6.23
2019-01-29T20:00:13.777Z,6.43
2019-01-29T20:05:07.823Z,5.73
2019-01-29T20:10:00.799Z,5.63
2019-01-29T20:14:53.722Z,5.33
2019-01-29T20:19:46.687Z,5.43
2019-01-29T20:24:39.576Z,5.83
2019-01-29T20:29:32.442Z,5.43
2019-01-29T20:34:25.296Z,5.80
2019-01-29T20:39:18.230Z,4.57
2019-01-29T20:44:11.112Z,5.00
2019-01-29T20:49:03.975Z,4.97
2019-01-29T20:53:56.988Z,4.67
2019-01-29T20:58:52.636Z,4.37
2019-01-29T21:03:44.694Z,4.20
2019-01-29T21:08:37.620Z,4.50
2019-01-29T21:13:30.461Z,4.03
2019-01-29T21:18:23.457Z,3.77
2019-01-29T21:23:16.370Z,3.37
2019-01-29T21:28:09.233Z,3.30
2019-01-29T21:33:02.086Z,3.47
2019-01-29T21:37:54.937Z,3.43
2019-01-29T21:42:47.885Z,3.43
2019-01-29T21:47:40.690Z,3.33
2019-01-29T21:52:33.520Z,4.23
2019-01-29T21:57:26.345Z,3.90
2019-01-29T22:02:19.198Z,4.87
2019-01-29T22:07:12.031Z,4.53
2019-01-29T22:12:04.882Z,5.47
2019-01-29T22:16:57.676Z,4.93
2019-01-29T22:21:50.550Z,5.73
2019-01-29T22:26:43.389Z,5.80
2019-01-29T22:31:36.233Z,5.70
2019-01-29T22:36:29.387Z,6.40
2019-01-29T22:41:22.242Z,6.10
2019-01-29T22:46:15.103Z,6.57
2019-01-29T22:51:07.928Z,6.57
2019-01-29T22:56:01.017Z,6.20
2019-01-29T23:01:37.990Z,7.07
2019-01-29T23:06:56.415Z,6.93
2019-01-29T23:11:51.075Z,6.83
2019-01-29T23:16:44.695Z,6.37
2019-01-29T23:21:38.317Z,6.73
2019-01-29T23:26:31.765Z,6.70
2019-01-29T23:31:25.271Z,7.43
2019-01-29T23:36:18.361Z,6.87
2019-01-29T23:41:12.594Z,8.10
2019-01-29T23:46:09.451Z,7.33
2019-01-29T23:51:02.322Z,7.00
2019-01-29T23:55:55.955Z,6.73
